Time;durP1;ratioP1;P1;durP2;ratioP2;P2;SDS_P1;SDS_P2;PMS_P1;PMS_P2;Temp;Humidity;BMP_temperature;BMP_pressure;BME280_temperature;BME280_humidity;BME280_pressure;Samples;Min_cycle;Max_cycle;Signal;HPM_P1;HPM_P2
2023/04/08 00:01:26;;;;;;;32.80;22.20;;;;;;;3.89;100.00;93128.34;5047785;28;20045;-71
2023/04/08 00:03:52;;;;;;;28.48;21.63;;;;;;;3.87;100.00;93128.56;5048066;28;20073;-71
2023/04/08 00:06:19;;;;;;;29.00;22.05;;;;;;;3.88;100.00;93129.31;5047834;28;21199;-71
2023/04/08 00:08:47;;;;;;;30.50;21.85;;;;;;;3.90;100.00;93126.63;5047432;28;20045;-71
2023/04/08 00:11:14;;;;;;;31.80;22.65;;;;;;;3.90;100.00;93122.34;5047975;28;20091;-71
2023/04/08 00:13:41;;;;;;;34.13;24.95;;;;;;;3.84;100.00;93121.25;5047323;28;20079;-71
2023/04/08 00:16:07;;;;;;;30.17;22.00;;;;;;;3.85;100.00;93125.38;5047776;28;20094;-71
2023/04/08 00:18:36;;;;;;;32.85;23.58;;;;;;;3.85;100.00;93125.38;5047752;28;20053;-71
2023/04/08 00:21:03;;;;;;;33.38;23.55;;;;;;;3.86;100.00;93126.97;5047695;28;20404;-71
2023/04/08 00:23:30;;;;;;;30.90;23.23;;;;;;;3.84;100.00;93115.41;5033570;28;20090;-71
2023/04/08 00:25:58;;;;;;;29.55;23.10;;;;;;;3.80;100.00;93122.53;5047743;28;20114;-71
2023/04/08 00:28:25;;;;;;;34.70;23.17;;;;;;;3.83;100.00;93118.88;5047251;28;20041;-71
2023/04/08 00:30:53;;;;;;;32.28;23.45;;;;;;;3.79;100.00;93113.34;5047545;28;20045;-71
2023/04/08 00:33:19;;;;;;;31.05;22.35;;;;;;;3.86;100.00;93123.63;5047483;28;20049;-71
2023/04/08 00:35:46;;;;;;;29.98;22.15;;;;;;;3.81;100.00;93113.19;5047201;28;20045;-72
2023/04/08 00:38:13;;;;;;;27.00;19.40;;;;;;;3.82;100.00;93130.81;5046478;28;20099;-71
2023/04/08 00:40:40;;;;;;;24.35;18.52;;;;;;;3.83;100.00;93123.97;5046888;28;20049;-71
2023/04/08 00:43:08;;;;;;;25.58;18.75;;;;;;;3.83;100.00;93119.69;5046964;28;20087;-71
2023/04/08 00:45:34;;;;;;;25.80;18.27;;;;;;;3.81;100.00;93108.09;5047426;28;20045;-71
2023/04/08 00:48:02;;;;;;;24.60;18.90;;;;;;;3.86;100.00;93121.09;5033766;28;20567;-71
2023/04/08 00:50:29;;;;;;;25.98;16.80;;;;;;;3.83;100.00;93118.88;5046895;28;20052;-71
2023/04/08 00:52:56;;;;;;;24.20;17.52;;;;;;;3.83;100.00;93119.69;5046975;28;20409;-71
2023/04/08 00:55:23;;;;;;;22.05;17.00;;;;;;;3.82;100.00;93122.38;5046983;28;20103;-70
2023/04/08 00:57:49;;;;;;;24.95;18.13;;;;;;;3.81;100.00;93119.06;5047060;28;20498;-71
2023/04/08 01:00:17;;;;;;;26.65;18.65;;;;;;;3.81;100.00;93116.53;5047048;28;20045;-71
2023/04/08 01:02:51;;;;;;;27.42;19.27;;;;;;;3.80;100.00;93117.47;5046784;28;20088;-70
2023/04/08 01:05:25;;;;;;;27.52;19.35;;;;;;;3.79;100.00;93120.97;5047180;28;20521;-71
2023/04/08 01:07:52;;;;;;;25.17;19.75;;;;;;;3.81;100.00;93118.28;5046910;28;20045;-71
2023/04/08 01:10:22;;;;;;;26.50;18.67;;;;;;;3.79;100.00;93126.06;5047122;28;20095;-71
2023/04/08 01:12:53;;;;;;;22.10;17.08;;;;;;;3.76;100.00;93126.41;5047116;28;20098;-71
2023/04/08 01:15:22;;;;;;;22.65;17.25;;;;;;;3.71;100.00;93131.19;5046870;28;20048;-71
2023/04/08 01:17:53;;;;;;;21.50;16.70;;;;;;;3.68;100.00;93124.72;5046952;28;20057;-71
2023/04/08 01:20:21;;;;;;;20.88;15.93;;;;;;;3.71;100.00;93133.75;5047049;28;20045;-71
2023/04/08 01:23:03;;;;;;;23.02;15.65;;;;;;;3.68;100.00;93124.72;5046505;28;20106;-71
2023/04/08 01:25:33;;;;;;;23.23;15.88;;;;;;;3.71;100.00;93131.19;5046850;28;20118;-71
2023/04/08 01:28:05;;;;;;;20.17;15.50;;;;;;;3.69;100.00;93128.81;5047021;28;20053;-71
2023/04/08 01:30:33;;;;;;;22.55;17.05;;;;;;;3.67;100.00;93128.22;5046977;28;20501;-71
2023/04/08 01:33:02;;;;;;;22.90;16.80;;;;;;;3.64;100.00;93128.53;5046398;28;20045;-71
2023/04/08 01:35:30;;;;;;;26.75;18.13;;;;;;;3.52;100.00;93115.44;5046664;28;20045;-71
2023/04/08 01:37:58;;;;;;;25.98;18.17;;;;;;;3.61;100.00;93129.66;5046688;28;20097;-71
2023/04/08 01:40:25;;;;;;;25.63;17.52;;;;;;;3.62;100.00;93133.00;5046913;28;20387;-71
2023/04/08 01:42:55;;;;;;;27.27;18.52;;;;;;;3.63;100.00;93132.03;5046381;28;20040;-71
2023/04/08 01:45:24;;;;;;;22.85;17.98;;;;;;;3.51;100.00;93120.69;5046627;28;20406;-70
2023/04/08 01:47:53;;;;;;;26.50;18.92;;;;;;;3.63;100.00;93139.66;5046840;28;20467;-71
2023/04/08 01:50:20;;;;;;;25.27;19.23;;;;;;;3.64;100.00;93148.88;5048573;28;20045;-70
2023/04/08 01:52:51;;;;;;;27.98;19.45;;;;;;;3.59;100.00;93146.84;5050322;28;20099;-70
2023/04/08 01:55:18;;;;;;;26.80;18.40;;;;;;;3.62;100.00;93150.78;5050052;28;20052;-70
2023/04/08 01:57:49;;;;;;;24.70;17.90;;;;;;;3.68;100.00;93149.31;5050151;28;20543;-70
2023/04/08 02:00:22;;;;;;;26.23;18.00;;;;;;;3.66;100.00;93152.00;5050513;28;20408;-70
2023/04/08 02:02:51;;;;;;;24.30;17.48;;;;;;;3.70;100.00;93155.81;5050226;28;20052;-70
2023/04/08 02:05:18;;;;;;;22.67;16.50;;;;;;;3.70;100.00;93153.25;5049495;28;20045;-70
2023/04/08 02:07:45;;;;;;;23.33;17.45;;;;;;;3.73;100.00;93168.19;5049648;28;20050;-70
2023/04/08 02:10:12;;;;;;;21.38;15.60;;;;;;;3.73;100.00;93162.31;5050108;28;20128;-71
2023/04/08 02:12:39;;;;;;;23.52;16.40;;;;;;;3.78;100.00;93164.31;5049904;28;20075;-71
2023/04/08 02:15:08;;;;;;;19.13;15.35;;;;;;;3.80;100.00;93160.66;5049825;28;21211;-71
2023/04/08 02:17:43;;;;;;;21.40;15.63;;;;;;;3.60;100.00;93162.84;5050168;28;20057;-70
2023/04/08 02:20:17;;;;;;;24.52;18.20;;;;;;;3.55;100.00;93155.75;5049261;28;20044;-70
2023/04/08 02:22:48;;;;;;;25.23;17.70;;;;;;;3.52;100.00;93143.38;5049829;28;20045;-70
2023/04/08 02:25:17;;;;;;;22.25;17.02;;;;;;;3.63;100.00;93149.81;5049586;28;20049;-70
2023/04/08 02:27:47;;;;;;;23.67;16.70;;;;;;;3.67;100.00;93145.19;5049460;28;20103;-70
2023/04/08 02:30:15;;;;;;;22.48;17.20;;;;;;;3.69;100.00;93156.78;5049888;28;20135;-70
2023/04/08 02:32:43;;;;;;;23.50;16.98;;;;;;;3.72;100.00;93155.66;5049403;28;20053;-70
2023/04/08 02:35:12;;;;;;;26.02;18.10;;;;;;;3.61;100.00;93139.03;5049167;28;20053;-70
2023/04/08 02:37:39;;;;;;;25.70;17.13;;;;;;;3.57;100.00;93132.72;5049578;28;20048;-71
2023/04/08 02:40:22;;;;;;;26.60;19.02;;;;;;;3.76;100.00;93159.44;5049506;28;20086;-71
2023/04/08 02:42:49;;;;;;;33.05;20.33;;;;;;;3.64;100.00;93140.44;5049162;28;20444;-70
2023/04/08 02:45:16;;;;;;;44.95;27.27;;;;;;;3.72;100.00;93159.00;5049360;28;20049;-70
2023/04/08 02:47:43;;;;;;;43.05;24.48;;;;;;;3.73;100.00;93163.09;5048918;28;20546;-70
2023/04/08 02:50:11;;;;;;;44.13;26.15;;;;;;;3.76;100.00;93156.09;5048804;28;20045;-70
2023/04/08 02:52:38;;;;;;;49.20;28.25;;;;;;;3.73;100.00;93154.69;5049310;28;20040;-70
2023/04/08 02:55:08;;;;;;;48.10;26.27;;;;;;;3.72;100.00;93156.44;5048922;28;20513;-70
2023/04/08 02:57:35;;;;;;;47.58;25.23;;;;;;;3.72;100.00;93150.56;5035660;28;20414;-70
2023/04/08 03:00:03;;;;;;;39.35;24.50;;;;;;;3.78;100.00;93149.09;5049142;28;20052;-70
2023/04/08 03:02:29;;;;;;;42.67;25.05;;;;;;;3.77;100.00;93148.31;5048336;28;20428;-71
2023/04/08 03:04:56;;;;;;;37.25;22.75;;;;;;;3.77;100.00;93153.38;5048684;28;20520;-71
2023/04/08 03:07:24;;;;;;;41.28;23.83;;;;;;;3.77;100.00;93155.13;5048776;28;20049;-70
2023/04/08 03:09:51;;;;;;;36.70;23.02;;;;;;;3.66;100.00;93139.31;5048971;28;20102;-70
2023/04/08 03:12:18;;;;;;;43.75;26.50;;;;;;;3.74;100.00;93146.91;5048965;28;20095;-70
2023/04/08 03:14:45;;;;;;;44.05;25.02;;;;;;;3.77;100.00;93147.50;5048542;28;20049;-70
2023/04/08 03:17:11;;;;;;;43.17;26.38;;;;;;;3.79;100.00;93150.69;5048759;28;20053;-70
2023/04/08 03:19:38;;;;;;;38.58;25.52;;;;;;;3.80;100.00;93147.97;5048132;28;20048;-70
2023/04/08 03:22:05;;;;;;;39.75;26.05;;;;;;;3.73;100.00;93137.69;5048542;28;20053;-69
2023/04/08 03:24:33;;;;;;;45.78;25.98;;;;;;;3.80;100.00;93147.19;5048341;28;20421;-71
2023/04/08 03:26:59;;;;;;;44.35;27.50;;;;;;;3.78;100.00;93149.88;5048583;28;20095;-71
2023/04/08 03:29:26;;;;;;;44.53;26.80;;;;;;;3.75;100.00;93142.59;5048442;28;20116;-71
2023/04/08 03:31:53;;;;;;;41.15;26.20;;;;;;;3.76;100.00;93149.28;5047922;28;20501;-71
2023/04/08 03:34:20;;;;;;;41.00;27.60;;;;;;;3.79;100.00;93150.69;5048102;28;20094;-71
2023/04/08 03:36:46;;;;;;;44.55;27.13;;;;;;;3.80;100.00;93152.25;5048522;28;20044;-71
2023/04/08 03:39:13;;;;;;;43.35;27.15;;;;;;;3.77;100.00;93143.22;5048425;28;20045;-71
2023/04/08 03:41:41;;;;;;;35.65;24.33;;;;;;;3.80;100.00;93144.63;5048522;28;20098;-71
2023/04/08 03:44:08;;;;;;;34.95;23.33;;;;;;;3.78;100.00;93144.81;5034325;28;20049;-71
2023/04/08 03:46:35;;;;;;;36.47;23.08;;;;;;;3.75;100.00;93147.66;5044124;28;20041;-71
2023/04/08 03:49:01;;;;;;;34.35;21.92;;;;;;;3.63;100.00;93138.88;5047859;28;20558;-71
2023/04/08 03:51:28;;;;;;;31.10;22.23;;;;;;;3.70;100.00;93142.34;5048086;28;20418;-71
2023/04/08 03:53:55;;;;;;;30.92;21.52;;;;;;;3.67;100.00;93140.13;5048244;28;20059;-71
2023/04/08 03:56:21;;;;;;;34.50;22.98;;;;;;;3.70;100.00;93155.03;5045120;28;20056;-71
2023/04/08 03:58:49;;;;;;;34.03;21.17;;;;;;;3.68;100.00;93156.94;5045514;28;20107;-71
2023/04/08 04:01:17;;;;;;;32.05;21.60;;;;;;;3.68;100.00;93160.28;5031483;28;20123;-71
2023/04/08 04:03:43;;;;;;;33.88;22.60;;;;;;;3.63;100.00;93152.38;5047816;28;20049;-71
2023/04/08 04:06:10;;;;;;;36.42;21.88;;;;;;;3.64;100.00;93160.75;5045904;28;20119;-71
2023/04/08 04:08:37;;;;;;;32.17;22.35;;;;;;;3.63;100.00;93159.97;5047675;28;20041;-70
2023/04/08 04:11:03;;;;;;;30.52;21.92;;;;;;;3.66;100.00;93152.00;5039747;28;20103;-71
2023/04/08 04:13:30;;;;;;;30.85;21.48;;;;;;;3.67;100.00;93160.44;5041705;28;20045;-71
2023/04/08 04:15:58;;;;;;;33.13;21.98;;;;;;;3.65;100.00;93162.38;5047884;28;20049;-70
2023/04/08 04:18:25;;;;;;;33.67;21.73;;;;;;;3.61;100.00;93162.69;5047407;28;20053;-71
2023/04/08 04:20:52;;;;;;;30.20;21.20;;;;;;;3.64;100.00;93153.13;5047323;28;20044;-71
2023/04/08 04:23:18;;;;;;;29.02;19.55;;;;;;;3.64;100.00;93163.31;5047495;28;20052;-70
2023/04/08 04:25:45;;;;;;;26.60;19.73;;;;;;;3.65;100.00;93159.81;5047585;28;20130;-70
2023/04/08 04:28:12;;;;;;;35.50;27.20;;;;;;;3.63;100.00;93161.72;5047566;28;21057;-71
2023/04/08 04:30:39;;;;;;;37.85;27.17;;;;;;;3.64;100.00;93160.75;5047102;28;20164;-70
2023/04/08 04:33:07;;;;;;;37.55;27.00;;;;;;;3.64;100.00;93166.63;5044201;28;20041;-70
2023/04/08 04:35:34;;;;;;;32.08;23.20;;;;;;;3.59;100.00;93159.53;5041665;28;20440;-70
2023/04/08 04:38:01;;;;;;;35.50;25.15;;;;;;;3.59;100.00;93166.34;5042881;28;20490;-70
2023/04/08 04:40:27;;;;;;;38.05;25.85;;;;;;;3.64;100.00;93160.75;5044610;28;20074;-70
2023/04/08 04:42:54;;;;;;;43.05;26.15;;;;;;;3.63;100.00;93159.19;5035742;28;20084;-70
2023/04/08 04:45:21;;;;;;;37.35;24.67;;;;;;;3.58;100.00;93163.03;5046558;28;20072;-71
2023/04/08 04:47:48;;;;;;;34.60;24.02;;;;;;;3.53;100.00;93167.81;5046795;28;20048;-70
2023/04/08 04:50:16;;;;;;;30.17;22.73;;;;;;;3.44;100.00;93156.13;5046447;28;20394;-70
2023/04/08 04:52:43;;;;;;;34.67;23.48;;;;;;;3.40;100.00;93163.28;5046514;28;20045;-70
2023/04/08 04:55:10;;;;;;;37.47;24.63;;;;;;;3.25;100.00;93159.84;5047038;28;20061;-70
2023/04/08 04:57:36;;;;;;;35.90;23.90;;;;;;;3.40;100.00;93168.38;5047100;28;20399;-70
2023/04/08 05:00:03;;;;;;;33.85;24.85;;;;;;;3.28;100.00;93164.63;5046387;28;20048;-70
2023/04/08 05:02:30;;;;;;;42.25;26.73;;;;;;;3.30;100.00;93165.22;5046997;28;20048;-70
2023/04/08 05:04:57;;;;;;;35.33;24.67;;;;;;;3.38;100.00;93164.41;5047062;28;20049;-70
2023/04/08 05:07:25;;;;;;;33.08;25.55;;;;;;;3.27;100.00;93127.47;5046510;28;20451;-70
2023/04/08 05:09:52;;;;;;;37.75;26.15;;;;;;;3.51;100.00;93146.88;5046550;28;20045;-70
2023/04/08 05:12:19;;;;;;;36.33;26.40;;;;;;;3.78;100.00;93170.22;5046541;28;20045;-70
2023/04/08 05:14:46;;;;;;;39.85;27.65;;;;;;;3.93;100.00;93172.81;5046089;28;20124;-70
2023/04/08 05:17:13;;;;;;;37.88;27.20;;;;;;;4.05;100.00;93173.22;5046390;28;20061;-70
2023/04/08 05:19:39;;;;;;;26.25;19.35;;;;;;;4.07;100.00;93173.81;5046383;28;20563;-70
2023/04/08 05:22:06;;;;;;;32.50;22.15;;;;;;;4.17;100.00;93173.59;5046318;28;20130;-70
2023/04/08 05:24:35;;;;;;;32.90;23.73;;;;;;;4.31;100.00;93173.81;5047651;28;20111;-70
2023/04/08 05:27:02;;;;;;;36.45;24.73;;;;;;;4.38;100.00;93170.41;5043775;28;20059;-70
2023/04/08 05:29:28;;;;;;;34.85;24.80;;;;;;;4.36;100.00;93176.63;5050088;28;20517;-70
2023/04/08 05:31:56;;;;;;;35.33;25.05;;;;;;;4.28;100.00;93170.66;5050462;28;20041;-70
2023/04/08 05:34:23;;;;;;;34.15;25.13;;;;;;;4.36;100.00;93177.41;5050270;28;20041;-70
2023/04/08 05:36:51;;;;;;;32.58;22.85;;;;;;;4.28;100.00;93172.41;5050216;28;20138;-70
2023/04/08 05:39:18;;;;;;;32.70;22.67;;;;;;;4.12;100.00;93171.56;5049902;28;20059;-70
2023/04/08 05:41:46;;;;;;;30.88;22.38;;;;;;;4.16;100.00;93179.63;5049697;28;20493;-70
2023/04/08 05:44:13;;;;;;;32.45;23.05;;;;;;;4.07;100.00;93170.50;5049169;28;20095;-70
2023/04/08 05:46:40;;;;;;;36.20;23.00;;;;;;;3.89;100.00;93166.47;5050084;28;20048;-70
2023/04/08 05:49:06;;;;;;;28.50;23.23;;;;;;;3.92;100.00;93181.41;5049732;28;20045;-70
2023/04/08 05:51:33;;;;;;;32.50;23.33;;;;;;;4.00;100.00;93165.31;5049987;28;20114;-70
2023/04/08 05:54:00;;;;;;;31.98;23.35;;;;;;;3.90;100.00;93174.91;5050089;28;20095;-70
2023/04/08 05:56:26;;;;;;;37.17;26.00;;;;;;;3.87;100.00;93168.41;5049738;28;20126;-70
2023/04/08 05:58:55;;;;;;;34.95;25.92;;;;;;;3.97;100.00;93170.72;5049570;28;20041;-70
2023/04/08 06:01:21;;;;;;;37.20;26.23;;;;;;;4.02;100.00;93168.47;5050063;28;20045;-70
2023/04/08 06:03:48;;;;;;;35.45;25.00;;;;;;;4.21;100.00;93167.19;5049819;28;20052;-70
2023/04/08 06:06:15;;;;;;;34.90;23.38;;;;;;;4.32;100.00;93166.00;5049637;28;20468;-70
2023/04/08 06:08:41;;;;;;;34.15;22.63;;;;;;;4.34;100.00;93168.38;5047582;28;20049;-70
2023/04/08 06:11:08;;;;;;;35.10;25.13;;;;;;;4.50;100.00;93165.69;5038009;28;20049;-70
2023/04/08 06:13:36;;;;;;;45.28;25.85;;;;;;;4.63;100.00;93162.53;5048785;28;20497;-70
2023/04/08 06:16:12;;;;;;;41.25;24.45;;;;;;;4.76;100.00;93161.94;5041411;28;20049;-70
2023/04/08 06:18:43;;;;;;;38.17;24.08;;;;;;;4.82;100.00;93157.94;5035411;28;20110;-70
2023/04/08 06:21:20;;;;;;;41.00;23.90;;;;;;;4.92;100.00;93167.84;5040064;28;20091;-71
2023/04/08 06:23:47;;;;;;;36.95;23.00;;;;;;;5.03;100.00;93154.66;5030962;28;20093;-70
2023/04/08 06:26:14;;;;;;;38.40;23.73;;;;;;;5.31;100.00;93165.94;5048175;28;20053;-70
2023/04/08 06:28:40;;;;;;;35.33;23.05;;;;;;;5.45;99.40;93169.44;5049902;28;20045;-70
2023/04/08 06:31:07;;;;;;;37.08;23.27;;;;;;;5.65;97.46;93171.44;5047347;28;20095;-70
2023/04/08 06:33:35;;;;;;;34.03;22.33;;;;;;;5.87;97.46;93169.69;5049123;28;20416;-70
2023/04/08 06:36:03;;;;;;;38.83;23.20;;;;;;;6.09;96.48;93169.72;5048490;28;20098;-71
2023/04/08 06:38:30;;;;;;;38.83;22.65;;;;;;;6.27;94.65;93166.75;5048844;28;20128;-70
2023/04/08 06:41:01;;;;;;;36.88;23.02;;;;;;;6.40;91.51;93177.03;5048841;28;20080;-70
2023/04/08 06:43:28;;;;;;;37.42;22.50;;;;;;;6.46;90.21;93169.63;5048839;28;20052;-70
2023/04/08 06:45:54;;;;;;;33.53;22.25;;;;;;;6.62;89.25;93174.44;5048604;28;20041;-70
2023/04/08 06:48:22;;;;;;;40.78;23.15;;;;;;;6.63;89.03;93172.69;5048804;28;20497;-70
2023/04/08 06:50:50;;;;;;;37.80;22.55;;;;;;;6.72;88.13;93169.03;5048900;28;20063;-70
2023/04/08 06:53:17;;;;;;;38.67;22.90;;;;;;;6.78;87.84;93178.50;5048809;28;20091;-70
2023/04/08 06:55:43;;;;;;;35.17;21.42;;;;;;;6.82;86.44;93179.69;5048738;28;20059;-70
2023/04/08 06:58:10;;;;;;;40.92;25.58;;;;;;;7.01;84.55;93176.66;5048574;28;20052;-70
2023/04/08 07:00:37;;;;;;;28.60;17.10;;;;;;;7.03;79.78;93175.50;5044819;28;20091;-70
2023/04/08 07:03:03;;;;;;;26.38;16.45;;;;;;;7.18;79.73;93177.16;5028872;28;20450;-70
2023/04/08 07:05:30;;;;;;;26.23;13.68;;;;;;;7.12;77.70;93183.00;5038465;28;20099;-70
2023/04/08 07:07:58;;;;;;;23.38;15.85;;;;;;;7.12;77.25;93186.34;5047740;28;20053;-70
2023/04/08 07:10:25;;;;;;;23.00;15.90;;;;;;;7.29;78.48;93184.28;5047623;28;20049;-70
2023/04/08 07:12:52;;;;;;;25.48;17.88;;;;;;;7.46;78.93;93187.28;5039954;28;20041;-71
2023/04/08 07:15:19;;;;;;;22.65;16.13;;;;;;;7.52;77.24;93193.41;5028929;28;20071;-70
2023/04/08 07:17:46;;;;;;;19.65;13.70;;;;;;;7.46;77.65;93189.06;5044005;28;20049;-71
2023/04/08 07:20:13;;;;;;;21.55;14.80;;;;;;;7.30;75.76;93162.84;5047781;28;20045;-71
2023/04/08 07:22:40;;;;;;;22.13;15.45;;;;;;;7.60;76.53;93190.69;5048102;28;20049;-70
2023/04/08 07:25:09;;;;;;;21.30;15.77;;;;;;;7.83;75.07;93196.47;5047820;28;20086;-71
2023/04/08 07:27:36;;;;;;;19.02;13.20;;;;;;;7.62;74.68;93162.38;5047835;28;20049;-71
2023/04/08 07:30:02;;;;;;;30.55;18.65;;;;;;;7.99;77.47;93197.88;5047732;28;20048;-71
2023/04/08 07:32:29;;;;;;;25.92;16.80;;;;;;;8.17;76.11;93187.09;5048645;28;20045;-71
2023/04/08 07:34:56;;;;;;;20.83;15.50;;;;;;;8.37;77.35;93199.09;5048175;28;20099;-70
2023/04/08 07:37:22;;;;;;;22.70;15.43;;;;;;;8.51;76.41;93195.56;5048220;28;20048;-71
2023/04/08 07:39:49;;;;;;;25.83;16.23;;;;;;;8.31;71.46;93199.88;5047266;28;20091;-68
2023/04/08 07:42:17;;;;;;;21.30;15.48;;;;;;;8.40;70.60;93196.97;5048049;28;20056;-68
2023/04/08 07:44:45;;;;;;;25.90;15.90;;;;;;;8.41;72.66;93207.97;5034690;28;20059;-68
2023/04/08 07:47:12;;;;;;;23.60;14.82;;;;;;;8.58;73.77;93200.72;5047815;28;20107;-68
2023/04/08 07:49:39;;;;;;;51.97;33.10;;;;;;;8.77;75.00;93199.16;5034003;28;20102;-68
2023/04/08 07:52:05;;;;;;;43.33;29.70;;;;;;;8.99;74.12;93205.81;5047413;28;20041;-69
2023/04/08 07:54:33;;;;;;;38.85;27.88;;;;;;;9.21;73.58;93201.22;5047661;28;20108;-68
2023/04/08 07:57:00;;;;;;;28.65;20.08;;;;;;;9.42;71.98;93207.09;5047734;28;20055;-69
2023/04/08 07:59:29;;;;;;;30.60;18.38;;;;;;;9.60;70.44;93206.44;5047799;28;20123;-68
2023/04/08 08:01:56;;;;;;;23.52;16.50;;;;;;;9.70;68.75;93206.00;5047411;28;20056;-68
2023/04/08 08:04:24;;;;;;;20.80;13.23;;;;;;;9.82;66.44;93216.41;5047518;28;20045;-68
2023/04/08 08:06:51;;;;;;;16.65;10.75;;;;;;;9.97;66.51;93211.81;5047468;28;20037;-68
2023/04/08 08:09:18;;;;;;;21.88;12.95;;;;;;;10.02;66.86;93206.84;5046952;28;20587;-68
2023/04/08 08:11:44;;;;;;;19.75;12.48;;;;;;;9.16;65.21;93214.66;5047415;28;20052;-68
2023/04/08 08:14:12;;;;;;;21.02;13.60;;;;;;;8.62;68.54;93211.34;5047414;28;20049;-68
2023/04/08 08:16:41;;;;;;;19.95;13.30;;;;;;;8.92;69.18;93216.06;5047330;28;20052;-68
2023/04/08 08:19:08;;;;;;;19.98;14.02;;;;;;;8.59;70.33;93211.75;5037159;28;20049;-68
2023/04/08 08:21:36;;;;;;;20.55;14.00;;;;;;;8.65;71.54;93221.19;5044455;28;20056;-68
2023/04/08 08:24:06;;;;;;;20.98;13.38;;;;;;;8.85;72.07;93216.09;5045914;28;20052;-71
2023/04/08 08:26:35;;;;;;;18.23;12.57;;;;;;;8.70;67.98;93221.38;5047058;28;20049;-69
2023/04/08 08:29:02;;;;;;;17.77;12.45;;;;;;;9.20;71.05;93220.16;5039873;28;20045;-69
2023/04/08 08:31:29;;;;;;;21.73;13.40;;;;;;;9.60;71.44;93211.56;5045998;28;20076;-69
2023/04/08 08:33:57;;;;;;;22.17;15.48;;;;;;;9.84;69.36;93204.16;5039724;28;20132;-70
2023/04/08 08:36:24;;;;;;;12.82;9.90;;;;;;;9.85;65.52;93219.34;5032346;28;20497;-69
2023/04/08 08:38:52;;;;;;;16.40;12.10;;;;;;;9.40;67.03;93216.78;5046571;28;20053;-69
2023/04/08 08:41:19;;;;;;;27.98;17.50;;;;;;;9.92;68.43;93216.78;5033363;28;20059;-69
2023/04/08 08:43:46;;;;;;;68.55;38.50;;;;;;;10.30;66.98;93220.31;5046359;28;20134;-69
2023/04/08 08:46:16;;;;;;;24.30;13.85;;;;;;;10.66;66.05;93220.69;5045626;28;20052;-69
2023/04/08 08:48:50;;;;;;;16.40;12.50;;;;;;;10.95;65.21;93218.47;5046216;28;20123;-70
2023/04/08 08:51:19;;;;;;;16.83;12.10;;;;;;;11.26;64.09;93208.28;5043695;28;20049;-70
2023/04/08 08:53:45;;;;;;;14.05;10.23;;;;;;;11.28;60.62;93209.66;5047811;28;20158;-70
2023/04/08 08:56:12;;;;;;;16.65;11.40;;;;;;;10.72;59.59;93216.47;5048006;28;20139;-69
2023/04/08 08:58:39;;;;;;;13.93;9.65;;;;;;;10.69;61.63;93208.19;5048020;28;20053;-69
2023/04/08 09:01:31;;;;;;;14.50;10.05;;;;;;;10.51;61.15;93210.72;5050332;28;20098;-70
2023/04/08 09:04:08;;;;;;;14.70;10.75;;;;;;;10.18;62.16;93209.91;5050515;28;20052;-69
2023/04/08 09:06:36;;;;;;;15.05;10.02;;;;;;;10.07;60.55;93208.00;5050722;28;20064;-70
2023/04/08 09:09:04;;;;;;;14.40;10.15;;;;;;;10.23;62.30;93214.44;5050894;28;20091;-70
2023/04/08 09:11:32;;;;;;;15.27;10.80;;;;;;;9.60;62.13;93212.38;5050535;28;20045;-70
2023/04/08 09:13:58;;;;;;;27.35;19.25;;;;;;;10.18;63.82;93209.91;5050156;28;20127;-70
2023/04/08 09:16:26;;;;;;;17.50;11.18;;;;;;;10.78;64.23;93203.59;5042200;28;20044;-70
2023/04/08 09:18:53;;;;;;;15.13;9.88;;;;;;;10.62;60.08;93207.47;5049840;28;20056;-70
2023/04/08 09:21:23;;;;;;;15.98;10.40;;;;;;;11.08;61.02;93205.47;5050032;28;20091;-70
2023/04/08 09:23:52;;;;;;;17.85;11.45;;;;;;;11.63;62.41;93209.06;5050884;28;20461;-70
2023/04/08 09:26:21;;;;;;;14.23;10.25;;;;;;;11.94;58.44;93205.75;5050466;28;20099;-70
2023/04/08 09:28:58;;;;;;;12.77;9.20;;;;;;;12.23;56.34;93204.19;5050599;28;20159;-70
2023/04/08 09:31:27;;;;;;;16.50;9.35;;;;;;;12.53;57.84;93207.72;5050742;28;20049;-70
2023/04/08 09:33:55;;;;;;;17.23;9.82;;;;;;;12.77;55.78;93198.25;5050007;28;20099;-71
2023/04/08 09:36:22;;;;;;;10.18;7.30;;;;;;;12.87;51.31;93197.69;5049858;28;20119;-70
2023/04/08 09:38:49;;;;;;;7.55;5.20;;;;;;;12.01;49.74;93199.53;5050038;28;20056;-70
2023/04/08 09:41:19;;;;;;;8.23;6.55;;;;;;;11.58;51.25;93192.72;5050111;28;20041;-70
2023/04/08 09:43:49;;;;;;;9.48;5.70;;;;;;;11.94;52.80;93192.88;5049542;28;20063;-70
2023/04/08 09:46:17;;;;;;;7.75;5.65;;;;;;;11.49;50.82;93187.84;5038093;28;20053;-70
2023/04/08 09:48:51;;;;;;;14.02;9.90;;;;;;;11.80;54.53;93190.47;5050044;28;20048;-70
2023/04/08 09:51:20;;;;;;;9.38;7.30;;;;;;;12.09;52.16;93187.38;5050191;28;20044;-70
2023/04/08 09:53:49;;;;;;;10.90;7.68;;;;;;;12.23;53.16;93183.59;5049383;28;20750;-70
2023/04/08 09:56:19;;;;;;;7.93;5.25;;;;;;;12.21;49.99;93177.13;5049904;28;20045;-70
2023/04/08 09:58:52;;;;;;;7.72;5.15;;;;;;;12.32;50.59;93178.94;5049609;28;20060;-70
2023/04/08 10:01:26;;;;;;;8.43;5.93;;;;;;;12.60;53.19;93177.50;5049712;28;20421;-70
2023/04/08 10:03:57;;;;;;;10.75;5.95;;;;;;;12.78;51.21;93174.03;5049179;28;20509;-70
2023/04/08 10:06:28;;;;;;;9.00;4.80;;;;;;;13.02;49.72;93160.38;5049831;28;20490;-70
2023/04/08 10:08:56;;;;;;;9.65;4.90;;;;;;;13.38;50.88;93166.25;5049551;28;20420;-70
2023/04/08 10:11:24;;;;;;;8.20;5.50;;;;;;;13.55;49.12;93168.13;5049351;28;20521;-70
2023/04/08 10:13:51;;;;;;;14.45;8.40;;;;;;;13.65;48.57;93165.75;5049785;28;20118;-70
2023/04/08 10:16:23;;;;;;;10.32;6.00;;;;;;;13.96;49.17;93163.75;5049515;28;20074;-70
2023/04/08 10:18:54;;;;;;;10.18;5.45;;;;;;;14.24;47.63;93151.81;5049522;28;20414;-70
2023/04/08 10:21:47;;;;;;;6.88;4.82;;;;;;;14.33;47.07;93161.75;5049082;28;20049;-70
2023/04/08 10:24:14;;;;;;;8.02;5.15;;;;;;;14.14;45.65;93134.34;5035140;28;20056;-69
2023/04/08 10:26:43;;;;;;;7.88;5.20;;;;;;;14.13;46.17;93130.19;5049258;28;20099;-70
2023/04/08 10:29:31;;;;;;;10.38;7.25;;;;;;;14.38;46.80;93147.13;5049405;28;20052;-70
2023/04/08 10:31:57;;;;;;;10.07;6.60;;;;;;;14.34;46.09;93143.44;5037062;28;20051;-70
2023/04/08 10:34:26;;;;;;;10.07;5.30;;;;;;;14.44;47.96;93140.22;5048337;28;20114;-70
2023/04/08 10:36:54;;;;;;;9.15;5.70;;;;;;;14.51;47.85;93120.19;5049272;28;20104;-70
2023/04/08 10:39:21;;;;;;;13.38;9.45;;;;;;;14.46;46.06;93125.28;5048755;28;20052;-70
2023/04/08 10:41:50;;;;;;;8.25;5.28;;;;;;;14.25;47.07;93121.56;5049226;28;20049;-70
2023/04/08 10:44:18;;;;;;;6.97;5.65;;;;;;;14.30;48.03;93132.78;5048582;28;20057;-70
2023/04/08 10:46:45;;;;;;;9.40;5.47;;;;;;;14.33;45.74;93126.38;5048984;28;20049;-70
2023/04/08 10:49:12;;;;;;;7.05;5.53;;;;;;;14.37;46.35;93116.34;5048425;28;20509;-70
2023/04/08 10:51:40;;;;;;;9.02;5.13;;;;;;;14.12;45.87;93115.72;5049103;28;20061;-70
2023/04/08 10:54:07;;;;;;;6.78;5.70;;;;;;;14.13;44.24;93121.66;5048352;28;20076;-70
2023/04/08 10:56:35;;;;;;;19.23;9.50;;;;;;;14.42;46.53;93119.00;5048789;28;20559;-70
2023/04/08 10:59:03;;;;;;;29.63;17.10;;;;;;;14.49;45.17;93118.84;5048858;28;20081;-70
2023/04/08 11:01:39;;;;;;;7.78;5.80;;;;;;;14.23;43.97;93111.50;5048437;28;20413;-70
2023/04/08 11:04:12;;;;;;;9.75;5.88;;;;;;;14.11;43.78;93114.16;5048031;28;20511;-70
2023/04/08 11:06:38;;;;;;;15.20;5.57;;;;;;;14.28;44.83;93103.03;5048760;28;20095;-70
2023/04/08 11:09:05;;;;;;;21.30;9.95;;;;;;;14.40;44.30;93095.97;5048563;28;20103;-70
2023/04/08 11:11:32;;;;;;;7.05;4.85;;;;;;;14.43;44.55;93099.91;5048899;28;20045;-70
2023/04/08 11:13:59;;;;;;;16.70;10.45;;;;;;;14.62;45.33;93094.50;5048555;28;20049;-70
2023/04/08 11:16:27;;;;;;;22.33;12.85;;;;;;;14.85;43.80;93093.53;5048108;28;20049;-70
2023/04/08 11:18:55;;;;;;;11.38;6.65;;;;;;;14.95;42.59;93096.25;5048223;28;20049;-70
2023/04/08 11:21:24;;;;;;;16.20;7.95;;;;;;;15.07;43.87;93098.72;5046506;28;20053;-70
2023/04/08 11:23:52;;;;;;;20.00;10.68;;;;;;;15.14;43.91;93097.78;5047774;28;20073;-70
2023/04/08 11:26:19;;;;;;;12.32;6.22;;;;;;;14.94;44.37;93071.41;5048220;28;20049;-70